Create Tblcommutelog Verified Points Advance Search
| # | Trip ID | Id Commuter | Trip Date | Trip Num | Current Lat | Current Lng | Delta Distance | Current Time | Activity | Activity Confidence | Current Speed | |
|---|---|---|---|---|---|---|---|---|---|---|---|---|
| 70921 | 250908_781273_16424909_0749 | 781273 | (not set) | (not set) | 38.936154179677 | -77.058819702896 | 4.2747 | 2025-09-08 08:57:44 | in_vehicle | 100 | -0.44703925898772 | |
| 70922 | 250908_781273_16424909_0749 | 781273 | (not set) | (not set) | 38.944440582603 | -77.063517664302 | 4.2747 | 2025-09-08 08:57:44 | in_vehicle | 100 | -0.44703925898772 | |
| 70923 | 250908_781273_16424909_0749 | 781273 | (not set) | (not set) | 38.936154179677 | -77.058819702896 | 4.2747 | 2025-09-08 08:57:44 | in_vehicle | 100 | -0.44703925898772 | |
| 70924 | 250908_781273_16424909_0749 | 781273 | (not set) | (not set) | 38.944440582603 | -77.063517664302 | 4.2747 | 2025-09-08 08:57:44 | in_vehicle | 100 | -0.44703925898772 | |
| 70925 | 250908_770680_16457490_0804 | 770680 | (not set) | (not set) | 38.875083604565 | -77.243636120676 | 0 | 2025-09-08 08:57:45 | still | 33 | 0.34869062201042 | |
| 70926 | 250908_770680_16457490_0804 | 770680 | (not set) | (not set) | 38.875083604565 | -77.243636120676 | 0 | 2025-09-08 08:57:45 | still | 33 | 0.34869062201042 | |
| 70927 | 250908_758024_16426762_0849 | 758024 | (not set) | (not set) | 38.905621879836 | -77.015518046673 | 1.383 | 2025-09-08 08:57:45 | on_bicycle | 100 | 2.8610512575214 | |
| 70928 | 250908_758024_16426762_0849 | 758024 | (not set) | (not set) | 38.905621879836 | -77.015518046673 | 1.383 | 2025-09-08 08:57:45 | on_bicycle | 100 | 2.8610512575214 | |
| 70929 | 250908_784627_16496249_0813 | 784627 | (not set) | (not set) | 38.901365507635 | -77.042352721667 | 12.0839 | 2025-09-08 08:57:45 | unknown | 100 | 0.56773985891441 | |
| 70930 | 250908_770680_16457490_0804 | 770680 | (not set) | (not set) | 38.875083645164 | -77.243630714557 | 0 | 2025-09-08 08:57:46 | still | 33 | 0.21457884431411 | |
| 70931 | 250908_770680_16457490_0804 | 770680 | (not set) | (not set) | 38.875083645164 | -77.243630714557 | 0 | 2025-09-08 08:57:46 | still | 33 | 0.21457884431411 | |
| 70932 | 250908_770680_16457490_0804 | 770680 | (not set) | (not set) | 38.875087051968 | -77.243628254644 | 0 | 2025-09-08 08:57:47 | still | 33 | 0.1966972739546 | |
| 70933 | 250908_770680_16457490_0804 | 770680 | (not set) | (not set) | 38.875087051968 | -77.243628254644 | 0 | 2025-09-08 08:57:47 | still | 33 | 0.1966972739546 | |
| 70934 | 250908_785785_6461772_0823 | 785785 | (not set) | (not set) | 38.902448897763 | -77.087660957142 | 8.5836 | 2025-09-08 08:57:47 | in_vehicle | 100 | 5.8025695816607 | |
| 70935 | 250908_785785_6461772_0823 | 785785 | (not set) | (not set) | 38.902448897763 | -77.087660957142 | 8.5836 | 2025-09-08 08:57:47 | in_vehicle | 100 | 5.8025695816607 | |
| 70936 | 250908_780743_6461772_0844 | 780743 | (not set) | (not set) | 38.884883573951 | -77.092692695545 | 0.5624 | 2025-09-08 08:57:48 | on_foot | 100 | 0.67055888848159 | |
| 70937 | 250908_781457_16513328_0728 | 781457 | (not set) | (not set) | 38.886572680055 | -77.032117699207 | 59.6634 | 2025-09-08 08:57:49 | on_foot | 100 | 0.60797339222331 | |
| 70938 | 250908_784617_16489083_0844 | 784617 | (not set) | (not set) | 38.766536591426 | -77.168491989773 | 5.5968 | 2025-09-08 08:57:49 | in_vehicle | 100 | -0.44703925898772 | |
| 70939 | 250908_784617_16489083_0844 | 784617 | (not set) | (not set) | 38.766536591426 | -77.168491989773 | 5.5968 | 2025-09-08 08:57:49 | in_vehicle | 100 | -0.44703925898772 | |
| 70940 | 250908_780825_6461772_0846 | 780825 | (not set) | (not set) | 38.853473434317 | -77.074126330354 | 9.675 | 2025-09-08 08:57:50 | in_vehicle | 100 | 12.959668118054 |